Flight Track Log - Related Links

Times and Time Zones

All times are in EDT time to prevent confusion due to time zone crossing. See the JUS327 flight status page for this flight to view local times or setup timezone preferences in your user account.

Time Position Orientation Groundspeed Altitude Reporting Facility
EDT Latitude Longitude Course Direction KTS MPH feet Rate Location/Type
Fri 12:55:21 AM 27.5606 -99.4611 46° Northeast 145 167 1,500  Level Houston Center
Fri 12:56:22 AM 27.5936 -99.4158 51° Northeast 196 226 3,400 1,983 Climbing Houston Center
Fri 12:57:22 AM 27.6286 -99.3667 51° Northeast 198 228 5,500 1,950 Climbing Houston Center
Fri 12:58:00 AM 27.9503 -98.9630 47° Northeast  Level FlightAware Approximate
Fri 12:58:22 AM 27.6792 -99.3106 44° Northeast 232 267 7,300  Level Houston Center
Fri 12:59:00 AM 28.0308 -98.8622 53° Northeast  Level FlightAware Approximate
Fri 12:59:23 AM 27.7297 -99.2447 49° Northeast 259 298 9,500  Level Houston Center
Fri 01:00:00 AM 28.1062 -98.7566 46° Northeast  Level FlightAware Approximate
Fri 01:00:23 AM 27.7864 -99.1708 49° Northeast 291 335 10,800  Level Houston Center
Fri 01:01:23 AM 27.8558 -99.0864 47° Northeast 337 388 12,000 1,587 Climbing Houston Center
Fri 01:02:24 AM 27.9311 -99.0011 45° Northeast 372 428 14,000 1,934 Climbing Houston Center
Fri 01:03:24 AM 28.0022 -98.9086 49° Northeast 386 444 15,900 1,850 Climbing Houston Center
Fri 01:04:24 AM 28.0797 -98.8197 45° Northeast 395 455 17,700 1,488 Climbing Houston Center
Fri 01:05:25 AM 28.1539 -98.7256 48° Northeast 399 459 18,900 1,140 Climbing Houston Center
Fri 01:06:25 AM 28.2342 -98.6306 46° Northeast 415 478 20,000 1,150 Climbing Houston Center
Fri 01:07:25 AM 28.3169 -98.5333 46° Northeast 426 490 21,200 1,289 Climbing Houston Center
Fri 01:08:26 AM 28.3964 -98.4297 49° Northeast 433 498 22,600 1,289 Climbing Houston Center
Fri 01:09:26 AM 28.4950 -98.3167 45° Northeast 440 506 23,800 1,000 Climbing Houston Center
Fri 01:10:26 AM 28.5781 -98.2086 49° Northeast 451 519 24,600 900 Climbing Houston Center
Fri 01:11:26 AM 28.6672 -98.1039 46° Northeast 460 529 25,600 893 Climbing Houston Center
Fri 01:12:27 AM 28.7553 -97.9933 48° Northeast 468 539 26,400 793 Climbing Houston Center
Fri 01:13:27 AM 28.8436 -97.8806 48° Northeast 476 548 27,200 750 Climbing Houston Center
Fri 01:14:27 AM 28.9392 -97.7742 44° Northeast 479 551 27,900 850 Climbing Houston Center
Fri 01:15:27 AM 29.0281 -97.6553 49° Northeast 489 563 28,900 1,041 Climbing Houston Center
Fri 01:16:28 AM 29.1200 -97.5458 46° Northeast 480 552 30,000 992 Climbing Houston Center
Fri 01:17:28 AM 29.2106 -97.4350 47° Northeast 477 549 30,900 900 Climbing Houston Center
Fri 01:18:28 AM 29.2981 -97.3178 49° Northeast 481 554 31,800 793 Climbing Houston Center
Fri 01:19:29 AM 29.3931 -97.2089 45° Northeast 480 552 32,500 645 Climbing Houston Center
Fri 01:20:29 AM 29.4797 -97.0886 50° Northeast 481 554 33,100 600 Climbing Houston Center
Fri 01:21:29 AM 29.5522 -96.9975 48° Northeast 479 551 33,700 650 Climbing Houston Center
Fri 01:22:29 AM 29.6472 -96.8886 45° Northeast 476 548 34,400 595 Climbing Houston Center
Fri 01:23:30 AM 29.7306 -96.7681 51° Northeast 481 554 34,900 298 Climbing Houston Center
Fri 01:24:30 AM 29.8258 -96.6603 44° Northeast 479 551 35,000 50 Climbing Houston Center
Fri 01:25:30 AM 29.9133 -96.5439 49° Northeast 481 554 35,000  Level Houston Center
Fri 01:26:30 AM 30.0008 -96.4247 50° Northeast 485 558 35,000  Level Houston Center
Fri 01:27:31 AM 30.1053 -96.3353 37° Northeast 473 544 35,000  Level Houston Center
Fri 01:28:31 AM 30.2375 -96.2489 29° Northeast 460 529 35,000  Level Houston Center
Fri 01:29:31 AM 30.3392 -96.1461 41° Northeast 479 551 35,000  Level Houston Center
Fri 01:30:31 AM 30.4450 -96.0522 37° Northeast 477 549 35,000  Level Houston Center
Fri 01:31:32 AM 30.5350 -95.9886 31° Northeast 468 539 35,000  Level Houston Center
Fri 01:32:32 AM 30.6408 -95.8914 38° Northeast 493 567 35,000  Level Houston Center
Fri 01:33:32 AM 30.7511 -95.7897 38° Northeast 484 557 35,000  Level Houston Center
Fri 01:34:32 AM 30.8631 -95.7031 34° Northeast 483 556 35,000  Level Houston Center
Fri 01:35:33 AM 30.9664 -95.6008 40° Northeast 489 563 35,000  Level Houston Center
Fri 01:36:33 AM 31.0767 -95.5078 36° Northeast 483 556 35,000  Level Houston Center
Fri 01:37:33 AM 31.1861 -95.4161 36° Northeast 479 551 35,000  Level Houston Center
Fri 01:38:33 AM 31.2925 -95.3111 40° Northeast 497 572 35,000  Level Houston Center
Fri 01:38:51 AM 31.3392 -95.2753 33° Northeast 490 564 35,000  Level Fort Worth Center
Fri 01:39:51 AM 31.4506 -95.1853 35° Northeast 485 558 35,000  Level Fort Worth Center
Fri 01:40:51 AM 31.5550 -95.0803 41° Northeast 485 558 35,000  Level Fort Worth Center
Fri 01:41:51 AM 31.6658 -94.9822 37° Northeast 490 564 35,000  Level Fort Worth Center
Fri 01:42:51 AM 31.7769 -94.8889 36° Northeast 490 564 35,000  Level Fort Worth Center
Fri 01:43:51 AM 31.8792 -94.7858 41° Northeast 490 564 35,000  Level Fort Worth Center
Fri 01:44:51 AM 31.9775 -94.7022 36° Northeast 485 558 35,000  Level Fort Worth Center
Fri 01:45:51 AM 32.0861 -94.6058 37° Northeast 480 552 35,000  Level Fort Worth Center
Fri 01:46:51 AM 32.1881 -94.4997 41° Northeast 480 552 35,000  Level Fort Worth Center
Fri 01:47:51 AM 32.2986 -94.4050 36° Northeast 486 559 35,000  Level Fort Worth Center
Fri 01:48:51 AM 32.4047 -94.3056 38° Northeast 486 559 35,000  Level Fort Worth Center
Fri 01:49:51 AM 32.5106 -94.2036 39° Northeast 491 565 35,000  Level Fort Worth Center
Fri 01:50:51 AM 32.6211 -94.1108 35° Northeast 485 558 35,000  Level Fort Worth Center
Fri 01:51:51 AM 32.7267 -94.0056 40° Northeast 485 558 35,000  Level Fort Worth Center
Fri 01:52:51 AM 32.8325 -93.9053 39° Northeast 485 558 35,000  Level Fort Worth Center
Fri 01:53:51 AM 32.9425 -93.8094 36° Northeast 485 558 35,000  Level Fort Worth Center
Fri 01:55:56 AM 33.1792 -93.5889 38° Northeast 482 555 35,000  Level Memphis Center
Fri 01:56:56 AM 33.2842 -93.4833 40° Northeast 487 560 35,000  Level Memphis Center
Fri 01:57:56 AM 33.3911 -93.3828 38° Northeast 487 560 35,000  Level Memphis Center
Fri 01:58:56 AM 33.5039 -93.2844 36° Northeast 492 566 35,000  Level Memphis Center
Fri 01:59:56 AM 33.6089 -93.1758 41° Northeast 492 566 35,000  Level Memphis Center
Fri 02:00:56 AM 33.7175 -93.0767 37° Northeast 497 572 35,000  Level Memphis Center
Fri 02:01:56 AM 33.8281 -92.9778 37° Northeast 491 565 35,000  Level Memphis Center
Fri 02:02:56 AM 33.9283 -92.8706 42° Northeast 491 565 35,000  Level Memphis Center
Fri 02:03:56 AM 34.0367 -92.7786 35° Northeast 479 551 35,000  Level Memphis Center
Fri 02:04:56 AM 34.1367 -92.6708 42° Northeast 479 551 35,000  Level Memphis Center
Fri 02:05:56 AM 34.2389 -92.5681 40° Northeast 473 544 35,000  Level Memphis Center
Fri 02:06:56 AM 34.3469 -92.4703 37° Northeast 473 544 35,000  Level Memphis Center
Fri 02:07:56 AM 34.4489 -92.3644 41° Northeast 478 550 35,000  Level Memphis Center
Fri 02:08:56 AM 34.5464 -92.2708 38° Northeast 483 556 35,000  Level Memphis Center
Fri 02:09:56 AM 34.6522 -92.1697 38° Northeast 483 556 35,000  Level Memphis Center
Fri 02:10:56 AM 34.7536 -92.0633 41° Northeast 478 550 35,000  Level Memphis Center
Fri 02:11:56 AM 34.8614 -91.9642 37° Northeast 478 550 35,000  Level Memphis Center
Fri 02:12:57 AM 34.9692 -91.8572 39° Northeast 483 556 35,000  Level Memphis Center
Fri 02:13:56 AM 35.0706 -91.7500 41° Northeast 483 556 35,000  Level Memphis Center
Fri 02:14:56 AM 35.1781 -91.6503 37° Northeast 483 556 35,000  Level Memphis Center
Fri 02:15:56 AM 35.2814 -91.5422 40° Northeast 483 556 35,000  Level Memphis Center
Fri 02:16:56 AM 35.3867 -91.4344 40° Northeast 483 556 35,000  Level Memphis Center
Fri 02:17:56 AM 35.5064 -91.3261 36° Northeast 478 550 35,000  Level Memphis Center
Fri 02:18:56 AM 35.6031 -91.2150 43° Northeast 488 562 35,000  Level Memphis Center
Fri 02:19:56 AM 35.7058 -91.1111 39° Northeast 488 562 35,000  Level Memphis Center
Fri 02:20:56 AM 35.8128 -91.0097 38° Northeast 477 549 35,000  Level Memphis Center
Fri 02:21:56 AM 35.9094 -90.8953 44° Northeast 477 549 35,000  Level Memphis Center
Fri 02:22:56 AM 36.0181 -90.7933 37° Northeast 482 555 35,000  Level Memphis Center
Fri 02:23:56 AM 36.1228 -90.6883 39° Northeast 487 560 35,000  Level Memphis Center
Fri 02:24:56 AM 36.2253 -90.5783 41° Northeast 482 555 35,000  Level Memphis Center
Fri 02:25:56 AM 36.3317 -90.4781 37° Northeast 482 555 35,000  Level Memphis Center
Fri 02:26:56 AM 36.4317 -90.3647 42° Northeast 482 555 35,000  Level Memphis Center
Fri 02:27:56 AM 36.5339 -90.2589 40° Northeast 476 548 35,000  Level Memphis Center
Fri 02:28:56 AM 36.6400 -90.1528 39° Northeast 481 554 35,000  Level Memphis Center
Fri 02:29:56 AM 36.7378 -90.0411 42° Northeast 481 554 35,000  Level Memphis Center
Fri 02:30:56 AM 36.8458 -89.9369 38° Northeast 481 554 35,000  Level Memphis Center
Fri 02:31:56 AM 36.9369 -89.8431 39° Northeast 481 554 35,000  Level Memphis Center
Fri 02:32:56 AM 37.0344 -89.7281 43° Northeast 476 548 35,000  Level Memphis Center
Fri 02:33:56 AM 37.1422 -89.6231 38° Northeast 476 548 35,000  Level Memphis Center
Fri 02:35:53 AM 37.3369 -89.3975 43° Northeast 482 555 35,000  Level Kansas City Center
Fri 02:36:53 AM 37.4439 -89.2931 38° Northeast 487 560 35,000  Level Kansas City Center
Fri 02:38:00 AM 37.5459 -89.1798 41° Northeast  Level FlightAware Approximate
Fri 02:38:53 AM 37.6422 -89.0647 41° Northeast 482 555 35,000  Level Kansas City Center
Fri 02:39:54 AM 37.7508 -88.9636 36° Northeast 482 555 35,000  Level Kansas City Center
Fri 02:40:54 AM 37.8542 -88.8411 43° Northeast 486 559 35,000  Level Kansas City Center
Fri 02:41:54 AM 37.9528 -88.7264 43° Northeast 483 556 35,000  Level Kansas City Center
Fri 02:42:55 AM 38.0606 -88.6214 37° Northeast 484 557 35,000  Level Kansas City Center
Fri 02:43:55 AM 38.1564 -88.5011 45° Northeast 485 558 35,000  Level Kansas City Center
Fri 02:44:55 AM 38.2581 -88.3897 41° Northeast 480 552 35,000  Level Kansas City Center
Fri 02:45:55 AM 38.3644 -88.2808 39° Northeast 486 559 35,000  Level Kansas City Center
Fri 02:46:55 AM 38.4625 -88.1583 44° Northeast 491 565 35,000  Level Kansas City Center
Fri 02:47:56 AM 38.5681 -88.0492 39° Northeast 485 558 35,000  Level Kansas City Center
Fri 02:48:56 AM 38.6706 -87.9347 41° Northeast 486 559 35,000  Level Kansas City Center
Fri 02:49:55 AM 38.7450 -87.8378 45° Northeast 483 556 35,000  Level Indianapolis Center
Fri 02:50:55 AM 38.8522 -87.7278 39° Northeast 487 560 35,000  Level Indianapolis Center
Fri 02:51:56 AM 38.9514 -87.6106 43° Northeast 481 554 35,000  Level Indianapolis Center
Fri 02:52:56 AM 39.0497 -87.4897 44° Northeast 484 557 35,000  Level Indianapolis Center
Fri 02:53:56 AM 39.1600 -87.3756 39° Northeast 486 559 35,000  Level Indianapolis Center
Fri 02:54:56 AM 39.2569 -87.2564 44° Northeast 485 558 35,000  Level Indianapolis Center
Fri 02:55:56 AM 39.3550 -87.1381 43° Northeast 484 557 35,000  Level Indianapolis Center
Fri 02:56:56 AM 39.4586 -87.0297 39° Northeast 480 552 35,000  Level Indianapolis Center
Fri 02:57:56 AM 39.5525 -86.9081 45° Northeast 478 550 35,000  Level Indianapolis Center
Fri 02:58:57 AM 39.6514 -86.7958 41° Northeast 473 544 35,000  Level Indianapolis Center
Fri 02:59:57 AM 39.7511 -86.6839 41° Northeast 473 544 35,000  Level Indianapolis Center
Fri 03:00:57 AM 39.8431 -86.5614 46° Northeast 469 540 35,000  Level Indianapolis Center
Fri 03:01:57 AM 39.9447 -86.4522 39° Northeast 466 536 35,000  Level Indianapolis Center
Fri 03:02:50 AM 40.0239 -86.3619 41° Northeast 469 540 35,000  Level Chicago Center
Fri 03:03:50 AM 40.1139 -86.2397 46° Northeast 466 536 35,000  Level Chicago Center
Fri 03:04:50 AM 40.2136 -86.1308 40° Northeast 467 537 35,000  Level Chicago Center
Fri 03:05:50 AM 40.3069 -86.0197 42° Northeast 458 527 35,000  Level Chicago Center
Fri 03:06:50 AM 40.3956 -85.8981 46° Northeast 459 528 35,000  Level Chicago Center
Fri 03:07:50 AM 40.4919 -85.7878 41° Northeast 460 529 35,000  Level Chicago Center
Fri 03:08:51 AM 40.5861 -85.6764 42° Northeast 459 528 35,000  Level Chicago Center
Fri 03:09:51 AM 40.6753 -85.5594 45° Northeast 455 524 35,000 -450 Level Chicago Center
Fri 03:10:51 AM 40.7656 -85.4458 44° Northeast 452 520 34,100 -950 Descending Chicago Center
Fri 03:11:51 AM 40.8561 -85.3222 46° Northeast 464 534 33,100 -1,000 Descending Chicago Center
Fri 03:12:51 AM 40.9533 -85.2061 42° Northeast 471 542 32,100 -1,150 Descending Chicago Center
Fri 03:13:51 AM 41.0669 -85.0694 42° Northeast 466 536 30,800 -1,200 Descending Chicago Center
Fri 03:14:51 AM 41.1561 -84.9511 45° Northeast 460 529 29,700 -1,100 Descending Chicago Center
Fri 03:15:51 AM 41.2547 -84.8450 39° Northeast 459 528 28,600 -1,091 Descending Chicago Center
Fri 03:16:52 AM 41.3494 -84.7378 40° Northeast 453 521 27,500 -1,091 Descending Chicago Center
Fri 03:17:52 AM 41.4350 -84.6203 46° Northeast 447 514 26,400 -987 Descending Chicago Center
Fri 03:18:11 AM 41.4561 -84.5925 45° Northeast 440 506 26,200 -987 Descending Cleveland Center
Fri 03:19:11 AM 41.5453 -84.4872 41° Northeast 430 495 25,100 -1,424 Descending Cleveland Center
Fri 03:20:09 AM 41.6303 -84.3728 45° Northeast 429 494 23,400 -2,300 Descending Cleveland Center
Fri 03:21:11 AM 41.7214 -84.2694 40° Northeast 424 488 20,500 -2,902 Descending Cleveland Center
Fri 03:22:11 AM 41.8019 -84.1656 44° Northeast 412 474 17,500 -2,850 Descending Cleveland Center
Fri 03:23:11 AM 41.8761 -84.0553 48° Northeast 399 459 14,800 -2,800 Descending Cleveland Center
Fri 03:24:11 AM 41.9500 -83.9589 44° Northeast 379 436 11,900 -2,100 Descending Cleveland Center
Fri 03:25:11 AM 42.0214 -83.8675 44° Northeast 366 421 10,600 -1,650 Descending Cleveland Center
Fri 03:26:11 AM 42.0758 -83.7836 49° Northeast 332 382 8,600 -2,550 Descending Cleveland Center
Fri 03:27:11 AM 42.1217 -83.7047 52° Northeast 296 341 5,500 -2,650 Descending Cleveland Center
Fri 03:28:11 AM 42.1611 -83.6367 52° Northeast 258 297 3,300 -1,814 Descending Cleveland Center
Fri 03:29:20 AM 42.2022 -83.5825 44° Northeast 147 169 1,600 -1,478 Descending Cleveland Center
Fri 03:31:00 AM 42.2333 -83.5167 45° Northeast  Level FlightAware Approximate
Fri 03:38:00 AM 42.2393 -83.5310 45° Northeast  Level Estimated
Fri 03:39:00 AM 42.2393 -83.5310 45° Northeast  Level Estimated

Login

Don't have an account? Register now (free) for customized features, flight alerts, and more!